createdAt,value
2022-08-17T00:02:01.456Z,14.43
2022-08-17T00:07:10.973Z,11.25
2022-08-17T00:12:43.259Z,14.10
2022-08-17T00:17:34.408Z,13.48
2022-08-17T00:22:46.653Z,14.32
2022-08-17T00:27:48.330Z,14.00
2022-08-17T00:33:14.482Z,13.05
2022-08-17T00:38:12.409Z,13.95
2022-08-17T00:43:20.678Z,17.02
2022-08-17T00:53:36.463Z,15.35
2022-08-17T00:58:38.620Z,12.02
2022-08-17T01:03:41.902Z,13.98
2022-08-17T01:08:43.594Z,13.73
2022-08-17T01:13:45.646Z,15.30
2022-08-17T01:18:49.399Z,17.15
2022-08-17T01:23:51.023Z,15.45
2022-08-17T01:28:55.783Z,14.15
2022-08-17T01:34:05.959Z,17.42
2022-08-17T01:39:16.186Z,15.68
2022-08-17T01:44:18.033Z,14.02
2022-08-17T01:49:19.732Z,18.80
2022-08-17T01:54:22.258Z,18.25
2022-08-17T01:59:23.989Z,14.55
2022-08-17T02:04:25.573Z,15.52
2022-08-17T02:09:29.713Z,16.00
2022-08-17T02:14:31.744Z,15.63
2022-08-17T02:19:33.356Z,13.75
2022-08-17T02:25:00.095Z,14.00
2022-08-17T02:30:00.252Z,13.88
2022-08-17T02:35:01.885Z,15.18
2022-08-17T02:40:04.548Z,14.65
2022-08-17T02:45:11.201Z,14.07
2022-08-17T02:50:15.553Z,13.85
2022-08-17T02:55:19.258Z,14.70
2022-08-17T03:00:28.829Z,15.52
2022-08-17T03:05:32.732Z,17.15
2022-08-17T03:10:34.550Z,16.10
2022-08-17T03:15:36.293Z,14.85
2022-08-17T03:20:42.297Z,16.08
2022-08-17T03:25:46.044Z,15.98
2022-08-17T03:30:47.676Z,17.63
2022-08-17T03:35:49.392Z,15.45
2022-08-17T03:40:58.845Z,16.42
2022-08-17T03:46:34.138Z,16.85
2022-08-17T03:51:54.826Z,18.15
2022-08-17T03:57:10.871Z,16.88
2022-08-17T04:02:30.233Z,18.42
2022-08-17T04:07:32.087Z,14.98
2022-08-17T04:12:49.602Z,18.45
2022-08-17T04:17:52.376Z,18.10
2022-08-17T04:22:59.396Z,15.13
2022-08-17T04:28:01.995Z,16.35
2022-08-17T04:33:09.799Z,19.50
2022-08-17T04:38:14.934Z,14.73
2022-08-17T04:43:19.631Z,17.85
2022-08-17T04:48:21.351Z,14.75
2022-08-17T04:53:22.971Z,19.58
2022-08-17T04:58:25.029Z,17.17
2022-08-17T05:03:26.695Z,17.42
2022-08-17T05:08:28.295Z,15.43
2022-08-17T05:13:30.238Z,13.75
2022-08-17T05:18:32.894Z,13.95
2022-08-17T05:23:43.049Z,11.85
2022-08-17T05:28:45.456Z,17.75
2022-08-17T05:33:47.796Z,16.38
2022-08-17T05:38:50.644Z,14.23
2022-08-17T05:43:56.260Z,16.25
2022-08-17T05:49:03.459Z,15.25
2022-08-17T05:54:42.081Z,13.32
2022-08-17T06:00:20.968Z,12.77
2022-08-17T06:05:37.039Z,14.68
2022-08-17T06:10:59.622Z,13.60
2022-08-17T06:16:28.172Z,12.80
2022-08-17T06:21:39.601Z,13.05
2022-08-17T06:26:44.287Z,10.85
2022-08-17T06:31:46.218Z,13.35
2022-08-17T06:36:56.629Z,12.50
2022-08-17T06:42:10.246Z,15.45
2022-08-17T06:47:49.558Z,13.40
2022-08-17T06:52:59.882Z,14.25
2022-08-17T06:58:16.366Z,12.00
2022-08-17T07:03:24.525Z,15.10
2022-08-17T07:08:47.581Z,12.63
2022-08-17T07:14:25.003Z,13.43
2022-08-17T07:19:32.107Z,11.65
2022-08-17T07:25:02.592Z,15.43
2022-08-17T07:30:26.571Z,11.43
2022-08-17T07:35:40.791Z,14.27
2022-08-17T07:41:03.136Z,14.77
2022-08-17T07:46:31.142Z,11.48
2022-08-17T07:56:49.167Z,11.35
2022-08-17T08:01:57.714Z,15.52
2022-08-17T08:07:01.859Z,13.77
2022-08-17T08:12:22.004Z,11.60
2022-08-17T08:17:30.694Z,12.20
2022-08-17T08:22:47.729Z,13.88
2022-08-17T08:28:27.971Z,21.13
2022-08-17T08:33:56.404Z,9.18
2022-08-17T08:39:13.056Z,13.55
2022-08-17T08:45:00.616Z,12.13
2022-08-17T08:50:03.955Z,18.15
2022-08-17T08:55:07.786Z,14.65
2022-08-17T09:00:16.753Z,14.63
2022-08-17T09:05:56.393Z,15.10
2022-08-17T09:12:01.382Z,13.00
2022-08-17T09:17:14.955Z,11.60
2022-08-17T09:22:33.181Z,10.88
2022-08-17T09:28:00.486Z,8.20
2022-08-17T09:33:08.061Z,11.32
2022-08-17T09:38:31.871Z,9.90
2022-08-17T09:43:55.175Z,8.18
2022-08-17T09:49:03.454Z,10.50
2022-08-17T09:54:37.638Z,9.27
2022-08-17T09:59:54.921Z,9.68
2022-08-17T10:05:38.075Z,8.23
2022-08-17T10:10:56.439Z,7.65
2022-08-17T10:16:11.564Z,8.65
2022-08-17T10:21:37.583Z,9.40
2022-08-17T10:26:56.178Z,8.85
2022-08-17T10:32:05.098Z,9.88
2022-08-17T10:37:26.332Z,7.80
2022-08-17T10:42:50.561Z,8.15
2022-08-17T10:47:55.721Z,8.40
2022-08-17T10:52:59.940Z,7.97
2022-08-17T10:58:21.934Z,9.05
2022-08-17T11:03:25.659Z,10.18
2022-08-17T11:08:39.374Z,8.07
2022-08-17T11:13:51.738Z,9.52
2022-08-17T11:19:15.142Z,8.82
2022-08-17T11:24:21.224Z,8.10
2022-08-17T11:29:27.632Z,8.13
2022-08-17T11:34:32.634Z,8.10
2022-08-17T11:39:53.092Z,7.68
2022-08-17T11:45:09.992Z,8.35
2022-08-17T11:50:49.998Z,8.68
2022-08-17T11:55:51.705Z,10.80
2022-08-17T12:01:00.930Z,10.82
2022-08-17T12:06:30.727Z,7.47
2022-08-17T12:12:11.265Z,8.30
2022-08-17T12:17:14.161Z,7.53
2022-08-17T12:22:38.730Z,7.53
2022-08-17T12:28:05.136Z,9.40
2022-08-17T12:33:13.786Z,7.45
2022-08-17T12:38:34.762Z,9.82
2022-08-17T12:43:36.492Z,8.37
2022-08-17T12:48:38.112Z,8.90
2022-08-17T12:53:45.578Z,10.43
2022-08-17T12:58:56.893Z,9.15
2022-08-17T13:04:00.236Z,7.95
2022-08-17T13:09:13.797Z,8.25
2022-08-17T13:14:18.511Z,9.00
2022-08-17T13:19:40.433Z,9.85
2022-08-17T13:24:58.601Z,8.88
2022-08-17T13:35:39.918Z,11.32
2022-08-17T13:40:44.217Z,9.93
2022-08-17T13:45:50.738Z,9.23
2022-08-17T13:50:56.886Z,9.88
2022-08-17T13:56:37.932Z,9.60
2022-08-17T14:01:52.574Z,9.48
2022-08-17T14:06:57.833Z,9.48
2022-08-17T14:12:00.280Z,9.98
2022-08-17T14:17:02.093Z,6.80
2022-08-17T14:22:08.854Z,9.20
2022-08-17T14:27:10.358Z,8.53
2022-08-17T14:32:19.320Z,10.65
2022-08-17T14:37:21.627Z,10.98
2022-08-17T14:42:25.269Z,11.48
2022-08-17T14:47:26.762Z,7.40
2022-08-17T14:52:28.864Z,8.32
2022-08-17T14:57:34.155Z,8.82
2022-08-17T15:02:55.625Z,8.05
2022-08-17T15:07:58.145Z,7.38
2022-08-17T15:13:00.431Z,7.82
2022-08-17T15:18:02.579Z,9.10
2022-08-17T15:23:04.419Z,7.03
2022-08-17T15:28:06.394Z,11.63
2022-08-17T15:33:07.882Z,13.27
2022-08-17T15:38:11.961Z,10.38
2022-08-17T15:43:32.639Z,9.63
2022-08-17T15:48:41.720Z,7.32
2022-08-17T15:53:46.228Z,10.23
2022-08-17T15:58:49.093Z,7.53
2022-08-17T16:04:04.347Z,7.45
2022-08-17T16:09:06.866Z,8.60
2022-08-17T16:14:08.323Z,7.90
2022-08-17T16:19:09.794Z,7.60
2022-08-17T16:24:12.867Z,6.43
2022-08-17T16:29:15.274Z,7.88
2022-08-17T16:34:18.898Z,7.32
2022-08-17T16:39:20.408Z,6.75
2022-08-17T16:44:22.022Z,6.32
2022-08-17T16:49:35.968Z,8.50
2022-08-17T16:54:43.299Z,6.85
2022-08-17T16:59:48.114Z,6.57
2022-08-17T17:04:56.039Z,8.05
2022-08-17T17:09:57.500Z,9.98
2022-08-17T17:15:02.213Z,7.13
2022-08-17T17:20:12.466Z,7.38
2022-08-17T17:25:23.865Z,6.88
2022-08-17T17:30:33.095Z,6.95
2022-08-17T17:36:01.858Z,7.70
2022-08-17T17:41:08.587Z,8.05
2022-08-17T17:46:29.156Z,7.83
2022-08-17T17:52:11.032Z,8.48
2022-08-17T17:58:05.834Z,10.50
2022-08-17T18:03:51.575Z,8.70
2022-08-17T18:08:58.953Z,13.00
2022-08-17T18:14:17.225Z,8.00
2022-08-17T18:19:24.972Z,12.35
2022-08-17T18:24:33.417Z,12.13
2022-08-17T18:29:44.245Z,12.63
2022-08-17T18:34:48.823Z,15.73
2022-08-17T18:39:50.503Z,12.70
2022-08-17T18:44:55.338Z,10.75
2022-08-17T18:50:18.632Z,14.43
2022-08-17T18:55:23.114Z,13.77
2022-08-17T19:00:30.594Z,13.15
2022-08-17T19:05:37.996Z,13.75
2022-08-17T19:10:46.776Z,12.35
2022-08-17T19:16:05.298Z,13.40
2022-08-17T19:21:22.824Z,12.20
2022-08-17T19:26:55.163Z,15.25
2022-08-17T19:37:02.500Z,14.27
2022-08-17T19:42:12.820Z,13.85
2022-08-17T19:47:50.973Z,12.82
2022-08-17T19:53:09.736Z,13.13
2022-08-17T19:58:24.801Z,12.60
2022-08-17T20:03:29.873Z,11.57
2022-08-17T20:09:15.251Z,16.00
2022-08-17T20:14:53.535Z,15.50
2022-08-17T20:20:24.029Z,11.93
2022-08-17T20:25:31.552Z,15.77
2022-08-17T20:30:41.002Z,16.25
2022-08-17T20:35:59.847Z,15.23
2022-08-17T20:41:04.304Z,16.13
2022-08-17T20:46:28.472Z,13.70
2022-08-17T20:51:34.786Z,17.10
2022-08-17T20:56:57.872Z,13.55
2022-08-17T21:02:08.971Z,14.63
2022-08-17T21:07:42.550Z,16.83
2022-08-17T21:12:55.914Z,16.52
2022-08-17T21:18:16.496Z,16.45
2022-08-17T21:23:52.136Z,15.00
2022-08-17T21:29:32.046Z,14.98
2022-08-17T21:34:39.197Z,13.65
2022-08-17T21:39:41.716Z,15.18
2022-08-17T21:44:49.382Z,14.15
2022-08-17T21:49:52.681Z,16.55
2022-08-17T21:54:58.699Z,17.75
2022-08-17T22:00:02.762Z,14.45
2022-08-17T22:05:11.125Z,13.82
2022-08-17T22:10:27.818Z,16.90
2022-08-17T22:15:29.528Z,13.98
2022-08-17T22:20:31.380Z,13.85
2022-08-17T22:25:36.600Z,15.38
2022-08-17T22:30:42.917Z,17.08
2022-08-17T22:35:45.544Z,15.90
2022-08-17T22:40:53.930Z,16.58
2022-08-17T22:51:13.839Z,14.90
2022-08-17T22:56:37.564Z,17.70
2022-08-17T23:01:40.695Z,15.07
2022-08-17T23:06:42.616Z,16.45
2022-08-17T23:11:48.934Z,18.98
2022-08-17T23:16:51.298Z,16.55
2022-08-17T23:21:55.368Z,15.13
2022-08-17T23:26:58.184Z,17.48
2022-08-17T23:32:01.406Z,21.17
2022-08-17T23:37:04.446Z,18.58
2022-08-17T23:42:09.333Z,17.95
2022-08-17T23:47:11.305Z,16.75
2022-08-17T23:52:15.307Z,15.48
2022-08-17T23:57:33.089Z,16.08
